createdAt,value
2017-09-14T00:00:51.627Z,19.59
2017-09-14T00:02:00.582Z,19.55
2017-09-14T00:03:09.862Z,19.55
2017-09-14T00:04:18.510Z,19.56
2017-09-14T00:05:27.816Z,19.51
2017-09-14T00:06:36.467Z,19.51
2017-09-14T00:07:45.103Z,19.58
2017-09-14T00:08:54.071Z,19.4
2017-09-14T00:10:02.711Z,19.48
2017-09-14T00:11:11.983Z,19.48
2017-09-14T00:12:21.257Z,19.59
2017-09-14T00:13:30.214Z,19.44
2017-09-14T00:14:39.168Z,19.43
2017-09-14T00:15:48.441Z,19.47
2017-09-14T00:16:57.742Z,19.51
2017-09-14T00:18:07.021Z,19.46
2017-09-14T00:19:15.981Z,19.48
2017-09-14T00:20:25.259Z,19.5
2017-09-14T00:21:34.545Z,19.46
2017-09-14T00:22:43.509Z,19.4
2017-09-14T00:23:52.460Z,19.39
2017-09-14T00:25:02.686Z,19.39
2017-09-14T00:26:12.276Z,19.46
2017-09-14T00:27:21.551Z,19.48
2017-09-14T00:28:30.505Z,19.44
2017-09-14T00:29:39.787Z,19.48
2017-09-14T00:30:49.063Z,19.5
2017-09-14T00:31:58.030Z,19.43
2017-09-14T00:33:06.978Z,19.46
2017-09-14T00:34:15.620Z,19.37
2017-09-14T00:35:24.270Z,19.46
2017-09-14T00:36:32.917Z,19.46
2017-09-14T00:37:41.879Z,19.48
2017-09-14T00:38:50.518Z,19.48
2017-09-14T00:39:59.483Z,19.47
2017-09-14T00:41:08.447Z,19.39
2017-09-14T00:42:18.052Z,19.46
2017-09-14T00:43:27.973Z,19.47
2017-09-14T00:44:37.562Z,19.39
2017-09-14T00:45:46.847Z,19.47
2017-09-14T00:46:55.803Z,19.5
2017-09-14T00:48:05.397Z,19.4
2017-09-14T00:49:14.034Z,19.43
2017-09-14T00:50:23.307Z,19.48
2017-09-14T00:51:32.257Z,19.55
2017-09-14T00:52:42.479Z,19.44
2017-09-14T00:53:51.441Z,19.41
2017-09-14T00:55:01.029Z,19.54
2017-09-14T00:56:10.626Z,19.54
2017-09-14T00:57:19.895Z,19.59
2017-09-14T00:58:28.869Z,19.66
2017-09-14T00:59:38.464Z,19.63
2017-09-14T01:00:47.746Z,19.68
2017-09-14T01:01:56.392Z,19.68
2017-09-14T01:03:05.990Z,19.62
2017-09-14T01:04:15.282Z,19.63
2017-09-14T01:05:24.253Z,19.59
2017-09-14T01:06:33.205Z,19.56
2017-09-14T01:07:42.499Z,19.54
2017-09-14T01:08:51.506Z,19.58
2017-09-14T01:10:00.772Z,19.55
2017-09-14T01:11:10.045Z,19.51
2017-09-14T01:12:19.018Z,19.56
2017-09-14T01:13:27.662Z,19.58
2017-09-14T01:14:36.948Z,19.62
2017-09-14T01:15:45.910Z,19.62
2017-09-14T01:16:55.508Z,19.61
2017-09-14T01:18:04.476Z,19.61
2017-09-14T01:19:13.750Z,19.62
2017-09-14T01:20:22.711Z,19.59
2017-09-14T01:21:31.430Z,19.55
2017-09-14T01:22:40.387Z,19.56
2017-09-14T01:23:49.343Z,19.62
2017-09-14T01:24:58.942Z,19.56
2017-09-14T01:26:07.893Z,19.58
2017-09-14T01:27:17.489Z,19.55
2017-09-14T01:28:26.452Z,19.58
2017-09-14T01:29:35.732Z,19.66
2017-09-14T01:31:16.789Z,19.63
2017-09-14T01:32:25.753Z,19.59
2017-09-14T01:33:35.024Z,19.59
2017-09-14T01:34:44.105Z,19.62
2017-09-14T01:35:52.746Z,19.59
2017-09-14T01:37:01.708Z,19.68
2017-09-14T01:38:10.370Z,19.59
2017-09-14T01:39:19.019Z,19.62
2017-09-14T01:40:28.285Z,19.63
2017-09-14T01:41:38.189Z,19.65
2017-09-14T01:42:47.144Z,19.69
2017-09-14T01:43:55.855Z,19.59
2017-09-14T01:45:04.840Z,19.71
2017-09-14T01:46:15.366Z,19.58
2017-09-14T01:47:24.644Z,19.62
2017-09-14T01:48:33.605Z,19.68
2017-09-14T01:49:42.258Z,19.63
2017-09-14T01:50:51.210Z,19.69
2017-09-14T01:52:00.573Z,19.68
2017-09-14T01:53:09.532Z,19.73
2017-09-14T01:54:19.128Z,19.63
2017-09-14T01:55:28.110Z,19.63
2017-09-14T01:56:37.102Z,19.69
2017-09-14T01:57:46.902Z,19.63
2017-09-14T01:58:55.871Z,19.56
2017-09-14T02:00:05.150Z,19.66
2017-09-14T02:01:13.799Z,19.59
2017-09-14T02:02:23.070Z,19.71
2017-09-14T02:03:32.498Z,19.73
2017-09-14T02:04:41.790Z,19.65
2017-09-14T02:05:50.755Z,19.68
2017-09-14T02:06:59.410Z,19.73
2017-09-14T02:08:08.370Z,19.66
2017-09-14T02:09:17.332Z,19.68
2017-09-14T02:10:26.611Z,19.62
2017-09-14T02:11:36.203Z,19.73
2017-09-14T02:12:45.478Z,19.66
2017-09-14T02:13:55.071Z,19.56
2017-09-14T02:15:04.342Z,19.59
2017-09-14T02:16:12.978Z,19.61
2017-09-14T02:17:21.623Z,19.59
2017-09-14T02:18:31.222Z,19.59
2017-09-14T02:19:40.183Z,19.59
2017-09-14T02:20:49.563Z,19.63
2017-09-14T02:21:58.539Z,19.58
2017-09-14T02:23:07.512Z,19.54
2017-09-14T02:24:16.150Z,19.58
2017-09-14T02:25:25.103Z,19.71
2017-09-14T02:26:34.437Z,19.68
2017-09-14T02:27:43.717Z,19.73
2017-09-14T02:28:52.360Z,19.68
2017-09-14T02:30:01.959Z,19.73
2017-09-14T02:31:11.252Z,19.63
2017-09-14T02:32:20.045Z,19.58
2017-09-14T02:33:29.012Z,19.56
2017-09-14T02:34:37.984Z,19.56
2017-09-14T02:35:47.031Z,19.58
2017-09-14T02:36:56.008Z,19.54
2017-09-14T02:38:04.807Z,19.58
2017-09-14T02:39:14.102Z,19.59
2017-09-14T02:40:22.751Z,19.54
2017-09-14T02:41:32.660Z,19.55
2017-09-14T02:42:41.620Z,19.56
2017-09-14T02:43:50.261Z,19.43
2017-09-14T02:44:59.536Z,19.48
2017-09-14T02:46:08.516Z,19.54
2017-09-14T02:47:17.787Z,19.47
2017-09-14T02:48:27.387Z,19.39
2017-09-14T02:49:36.506Z,19.46
2017-09-14T02:50:45.136Z,19.44
2017-09-14T02:51:53.793Z,19.37
2017-09-14T02:53:03.064Z,19.48
2017-09-14T02:54:12.408Z,19.44
2017-09-14T02:55:21.669Z,19.5
2017-09-14T02:56:31.256Z,19.47
2017-09-14T02:57:40.216Z,19.47
2017-09-14T02:58:49.178Z,19.44
2017-09-14T02:59:58.134Z,19.47
2017-09-14T03:01:06.788Z,19.51
2017-09-14T03:02:15.746Z,19.48
2017-09-14T03:03:24.747Z,19.46
2017-09-14T03:04:34.336Z,19.48
2017-09-14T03:05:43.619Z,19.44
2017-09-14T03:06:53.355Z,19.33
2017-09-14T03:08:02.322Z,19.4
2017-09-14T03:09:10.968Z,19.39
2017-09-14T03:10:20.236Z,19.46
2017-09-14T03:11:29.510Z,19.41
2017-09-14T03:12:38.797Z,19.32
2017-09-14T03:13:48.089Z,19.37
2017-09-14T03:14:57.070Z,19.29
2017-09-14T03:16:06.037Z,19.29
2017-09-14T03:17:15.952Z,19.26
2017-09-14T03:18:25.382Z,19.23
2017-09-14T03:19:34.660Z,19.28
2017-09-14T03:20:43.340Z,19.25
2017-09-14T03:21:52.350Z,19.28
2017-09-14T03:23:01.324Z,19.28
2017-09-14T03:24:09.972Z,19.31
2017-09-14T03:25:19.261Z,19.25
2017-09-14T03:26:27.903Z,19.26
2017-09-14T03:27:36.552Z,19.21
2017-09-14T03:28:45.827Z,19.16
2017-09-14T03:29:54.793Z,19.14
2017-09-14T03:31:04.086Z,19.16
2017-09-14T03:32:12.728Z,19.08
2017-09-14T03:33:21.695Z,19.08
2017-09-14T03:34:30.973Z,19.16
2017-09-14T03:35:39.733Z,19.11
2017-09-14T03:36:49.021Z,19.18
2017-09-14T03:37:57.974Z,19.13
2017-09-14T03:39:06.619Z,19.13
2017-09-14T03:40:15.264Z,19.11
2017-09-14T03:41:24.541Z,19.22
2017-09-14T03:42:33.505Z,19.19
2017-09-14T03:43:42.472Z,19.18
2017-09-14T03:44:51.112Z,19.16
2017-09-14T03:45:59.767Z,19.08
2017-09-14T03:47:09.037Z,19.08
2017-09-14T03:48:18.624Z,19.13
2017-09-14T03:49:28.541Z,19.13
2017-09-14T03:50:37.824Z,19.28
2017-09-14T03:51:47.104Z,19.25
2017-09-14T03:52:56.780Z,19.25
2017-09-14T03:54:05.757Z,19.23
2017-09-14T03:55:14.417Z,19.31
2017-09-14T03:56:23.065Z,19.25
2017-09-14T03:57:31.729Z,19.25
2017-09-14T03:58:40.701Z,19.23
2017-09-14T03:59:49.343Z,19.26
2017-09-14T04:00:57.988Z,19.21
2017-09-14T04:02:07.890Z,19.28
2017-09-14T04:03:17.159Z,19.23
2017-09-14T04:04:26.592Z,19.18
2017-09-14T04:05:35.884Z,19.25
2017-09-14T04:06:45.479Z,19.23
2017-09-14T04:07:55.077Z,19.28
2017-09-14T04:09:04.030Z,19.25
2017-09-14T04:10:13.299Z,19.22
2017-09-14T04:11:22.263Z,19.29
2017-09-14T04:12:31.901Z,19.23
2017-09-14T04:13:41.177Z,19.31
2017-09-14T04:14:50.135Z,19.22
2017-09-14T04:15:58.783Z,19.31
2017-09-14T04:17:08.380Z,19.32
2017-09-14T04:18:17.037Z,19.22
2017-09-14T04:19:26.307Z,19.21
2017-09-14T04:20:35.575Z,19.22
2017-09-14T04:21:44.880Z,19.23
2017-09-14T04:22:53.841Z,19.23
2017-09-14T04:24:02.813Z,19.28
2017-09-14T04:25:12.082Z,19.21
2017-09-14T04:26:21.037Z,19.25
2017-09-14T04:27:30.008Z,19.31
2017-09-14T04:28:39.286Z,19.28
2017-09-14T04:29:48.261Z,19.26
2017-09-14T04:30:57.516Z,19.26
2017-09-14T04:32:06.221Z,19.23
2017-09-14T04:33:15.525Z,19.21
2017-09-14T04:34:24.179Z,19.1
2017-09-14T04:35:33.765Z,19.08
2017-09-14T04:36:43.042Z,19.06
2017-09-14T04:37:52.313Z,19.08
2017-09-14T04:39:02.221Z,19.19
2017-09-14T04:40:11.191Z,19.16
2017-09-14T04:41:19.833Z,19.13
2017-09-14T04:42:28.786Z,19.06
2017-09-14T04:43:37.779Z,19.1
2017-09-14T04:44:46.766Z,19.1
2017-09-14T04:45:55.721Z,19.16
2017-09-14T04:47:04.395Z,19.19
2017-09-14T04:48:13.692Z,19.11
2017-09-14T04:49:22.341Z,19.16
2017-09-14T04:50:31.340Z,19.13
2017-09-14T04:51:40.928Z,19.19
2017-09-14T04:52:49.904Z,19.16
2017-09-14T04:53:59.213Z,19.21
2017-09-14T04:55:08.290Z,19.28
2017-09-14T04:56:17.727Z,19.29
2017-09-14T04:57:26.381Z,19.28
2017-09-14T04:58:35.390Z,19.29
2017-09-14T04:59:45.300Z,19.31
2017-09-14T05:00:54.282Z,19.47
2017-09-14T05:02:03.846Z,19.46
2017-09-14T05:03:12.804Z,19.58
2017-09-14T05:04:21.781Z,19.61
2017-09-14T05:05:30.436Z,19.66
2017-09-14T05:06:39.744Z,19.71
2017-09-14T05:07:49.080Z,19.88
2017-09-14T05:08:58.065Z,19.92
2017-09-14T05:10:07.661Z,19.98
2017-09-14T05:11:16.625Z,19.99
2017-09-14T05:12:25.275Z,20.16
2017-09-14T05:13:34.402Z,20.24
2017-09-14T05:14:43.367Z,20.2
2017-09-14T05:15:52.656Z,20.28
2017-09-14T05:17:01.636Z,20.38
2017-09-14T05:18:10.619Z,20.36
2017-09-14T05:19:19.283Z,20.52
2017-09-14T05:20:27.944Z,20.52
2017-09-14T05:21:36.910Z,20.5
2017-09-14T05:22:45.887Z,20.66
2017-09-14T05:23:55.206Z,20.7
2017-09-14T05:25:04.524Z,20.67
2017-09-14T05:26:13.504Z,20.76
2017-09-14T05:27:22.549Z,20.8
2017-09-14T05:28:31.897Z,20.74
2017-09-14T05:29:40.984Z,20.82
2017-09-14T05:30:50.371Z,20.95
2017-09-14T05:31:59.695Z,20.98
2017-09-14T05:33:09.286Z,21.07
2017-09-14T05:34:18.245Z,21.03
2017-09-14T05:35:27.953Z,21.13
2017-09-14T05:36:36.630Z,21.12
2017-09-14T05:37:45.320Z,21.24
2017-09-14T05:38:54.930Z,21.19
2017-09-14T05:40:04.533Z,21.37
2017-09-14T05:41:13.559Z,21.29
2017-09-14T05:42:23.065Z,21.4
2017-09-14T05:43:32.049Z,21.4
2017-09-14T05:44:40.717Z,21.43
2017-09-14T05:45:50.062Z,21.44
2017-09-14T05:46:59.694Z,21.43
2017-09-14T05:48:08.675Z,21.47
2017-09-14T05:49:17.343Z,21.54
2017-09-14T05:50:26.965Z,21.53
2017-09-14T05:51:35.973Z,21.62
2017-09-14T05:52:44.947Z,21.62
2017-09-14T05:53:53.694Z,21.64
2017-09-14T05:55:02.704Z,21.59
2017-09-14T05:56:11.760Z,21.71
2017-09-14T05:57:21.045Z,21.71
2017-09-14T05:58:30.324Z,21.72
2017-09-14T05:59:39.444Z,21.8
2017-09-14T06:00:48.747Z,21.71
2017-09-14T06:01:58.680Z,21.8
2017-09-14T06:03:07.656Z,21.71
2017-09-14T06:04:16.703Z,21.75
2017-09-14T06:05:25.448Z,21.8
2017-09-14T06:06:34.430Z,21.79
2017-09-14T06:07:43.401Z,21.79
2017-09-14T06:08:53.017Z,21.74
2017-09-14T06:10:02.661Z,21.8
2017-09-14T06:11:12.019Z,21.82
2017-09-14T06:12:21.613Z,21.84
2017-09-14T06:13:31.321Z,21.74
2017-09-14T06:14:40.029Z,21.84
2017-09-14T06:15:49.345Z,21.79
2017-09-14T06:16:58.326Z,21.77
2017-09-14T06:18:07.634Z,21.86
2017-09-14T06:19:17.300Z,21.88
2017-09-14T06:20:26.890Z,21.86
2017-09-14T06:21:36.294Z,21.9
2017-09-14T06:22:45.265Z,21.92
2017-09-14T06:23:54.221Z,21.82
2017-09-14T06:25:03.511Z,21.92
2017-09-14T06:26:12.855Z,21.82
2017-09-14T06:27:21.840Z,21.9
2017-09-14T06:28:30.865Z,21.88
2017-09-14T06:29:39.927Z,21.9
2017-09-14T06:30:48.625Z,21.9
2017-09-14T06:31:57.912Z,21.86
2017-09-14T06:33:07.681Z,21.94
2017-09-14T06:34:16.560Z,21.88
2017-09-14T06:35:26.169Z,21.84
2017-09-14T06:36:35.479Z,21.9
2017-09-14T06:37:44.841Z,21.9
2017-09-14T06:38:53.833Z,21.94
2017-09-14T06:40:03.237Z,21.96
2017-09-14T06:41:12.319Z,21.92
2017-09-14T06:42:21.639Z,22
2017-09-14T06:43:30.635Z,21.9
2017-09-14T06:44:39.351Z,21.98
2017-09-14T06:45:48.512Z,22
2017-09-14T06:46:57.500Z,21.86
2017-09-14T06:48:06.526Z,22
2017-09-14T06:49:15.847Z,21.92
2017-09-14T06:50:24.831Z,21.96
2017-09-14T06:51:33.951Z,21.98
2017-09-14T06:52:42.948Z,22.12
2017-09-14T06:53:51.611Z,22.07
2017-09-14T06:55:00.271Z,22.05
2017-09-14T06:56:09.269Z,22.05
2017-09-14T06:57:33.173Z,22.06
2017-09-14T06:58:42.490Z,22.1
2017-09-14T06:59:51.550Z,22.05
2017-09-14T07:01:00.650Z,22.1
2017-09-14T07:02:09.313Z,22.15
2017-09-14T07:03:18.447Z,22.05
2017-09-14T07:04:27.737Z,22.05
2017-09-14T07:05:37.029Z,22.06
2017-09-14T07:06:46.014Z,22.12
2017-09-14T07:07:54.692Z,22.09
2017-09-14T07:09:04.470Z,22.07
2017-09-14T07:10:13.436Z,22.07
2017-09-14T07:11:22.721Z,22.06
2017-09-14T07:12:32.325Z,22.07
2017-09-14T07:13:41.923Z,22.07
2017-09-14T07:14:51.057Z,22.03
2017-09-14T07:16:00.349Z,22.12
2017-09-14T07:17:10.272Z,22.09
2017-09-14T07:18:20.195Z,22.15
2017-09-14T07:19:29.473Z,22.09
2017-09-14T07:20:38.759Z,22.14
2017-09-14T07:21:47.742Z,22.07
2017-09-14T07:22:57.038Z,22.09
2017-09-14T07:24:05.688Z,22.1
2017-09-14T07:25:14.357Z,22.09
2017-09-14T07:26:23.337Z,22.07
2017-09-14T07:27:32.312Z,22.09
2017-09-14T07:28:41.301Z,22.03
2017-09-14T07:29:50.272Z,22.12
2017-09-14T07:30:58.938Z,22.12
2017-09-14T07:32:08.269Z,22.09
2017-09-14T07:33:17.245Z,22.07
2017-09-14T07:34:26.527Z,22.02
2017-09-14T07:35:36.122Z,22.03
2017-09-14T07:36:45.099Z,22.07
2017-09-14T07:37:54.221Z,22.1
2017-09-14T07:39:03.843Z,22.05
2017-09-14T07:40:12.809Z,22.09
2017-09-14T07:41:21.778Z,22.03
2017-09-14T07:42:30.762Z,22.06
2017-09-14T07:43:40.153Z,22.07
2017-09-14T07:44:49.126Z,22.07
2017-09-14T07:45:57.778Z,22.18
2017-09-14T07:47:07.068Z,22.09
2017-09-14T07:48:16.037Z,22.05
2017-09-14T07:49:25.176Z,22.17
2017-09-14T07:50:34.458Z,22.12
2017-09-14T07:51:43.447Z,22.18
2017-09-14T07:52:52.741Z,22.14
2017-09-14T07:54:02.337Z,22.17
2017-09-14T07:55:11.005Z,22.2
2017-09-14T07:56:20.606Z,22.18
2017-09-14T07:57:29.910Z,22.1
2017-09-14T07:58:39.522Z,22.17
2017-09-14T07:59:48.174Z,22.14
2017-09-14T08:00:57.621Z,22.07
2017-09-14T08:02:07.227Z,22.21
2017-09-14T08:03:16.190Z,22.17
2017-09-14T08:04:25.466Z,22.17
2017-09-14T08:05:35.062Z,22.21
2017-09-14T08:06:44.350Z,22.14
2017-09-14T08:07:53.320Z,22.21
2017-09-14T08:09:02.294Z,22.18
2017-09-14T08:10:11.279Z,22.22
2017-09-14T08:11:20.249Z,22.22
2017-09-14T08:12:28.898Z,22.18
2017-09-14T08:13:37.864Z,22.22
2017-09-14T08:14:47.165Z,22.18
2017-09-14T08:15:56.128Z,22.22
2017-09-14T08:17:05.098Z,22.18
2017-09-14T08:18:14.359Z,22.2
2017-09-14T08:19:23.656Z,22.22
2017-09-14T08:20:32.932Z,22.28
2017-09-14T08:21:42.224Z,22.25
2017-09-14T08:22:50.884Z,22.28
2017-09-14T08:24:00.649Z,22.27
2017-09-14T08:25:09.627Z,22.25
2017-09-14T08:26:18.584Z,22.31
2017-09-14T08:27:27.232Z,22.35
2017-09-14T08:28:35.900Z,22.36
2017-09-14T08:29:45.178Z,22.3
2017-09-14T08:30:53.845Z,22.35
2017-09-14T08:32:03.127Z,22.35
2017-09-14T08:33:12.092Z,22.35
2017-09-14T08:34:21.059Z,22.39
2017-09-14T08:35:30.661Z,22.39
2017-09-14T08:36:39.647Z,22.4
2017-09-14T08:37:48.954Z,22.42
2017-09-14T08:38:57.630Z,22.39
2017-09-14T08:40:06.915Z,22.31
2017-09-14T08:41:16.034Z,22.37
2017-09-14T08:42:25.056Z,22.39
2017-09-14T08:43:34.031Z,22.35
2017-09-14T08:44:43.304Z,22.33
2017-09-14T08:45:51.957Z,22.35
2017-09-14T08:47:01.396Z,22.39
2017-09-14T08:48:10.371Z,22.36
2017-09-14T08:49:19.981Z,22.37
2017-09-14T08:50:28.952Z,22.4
2017-09-14T08:51:38.241Z,22.37
2017-09-14T08:52:47.209Z,22.43
2017-09-14T08:53:55.870Z,22.39
2017-09-14T08:55:04.872Z,22.35
2017-09-14T08:56:13.840Z,22.43
2017-09-14T08:57:22.808Z,22.43
2017-09-14T08:58:31.564Z,22.46
2017-09-14T08:59:41.177Z,22.54
2017-09-14T09:00:50.454Z,22.52
2017-09-14T09:02:00.082Z,22.55
2017-09-14T09:03:09.053Z,22.58
2017-09-14T09:04:18.430Z,22.58
2017-09-14T09:05:27.717Z,22.54
2017-09-14T09:06:36.690Z,22.52
2017-09-14T09:07:46.298Z,22.57
2017-09-14T09:08:55.263Z,22.57
2017-09-14T09:10:04.251Z,22.65
2017-09-14T09:11:12.913Z,22.52
2017-09-14T09:12:21.906Z,22.57
2017-09-14T09:13:31.199Z,22.6
2017-09-14T09:14:40.173Z,22.61
2017-09-14T09:15:49.457Z,22.62
2017-09-14T09:16:58.749Z,22.52
2017-09-14T09:18:07.715Z,22.46
2017-09-14T09:19:16.691Z,22.49
2017-09-14T09:20:25.677Z,22.57
2017-09-14T09:21:34.795Z,22.49
2017-09-14T09:22:43.457Z,22.58
2017-09-14T09:23:52.111Z,22.52
2017-09-14T09:25:01.405Z,22.55
2017-09-14T09:26:10.065Z,22.57
2017-09-14T09:27:19.204Z,22.52
2017-09-14T09:28:28.848Z,22.6
2017-09-14T09:29:38.464Z,22.57
2017-09-14T09:30:47.760Z,22.61
2017-09-14T09:31:57.060Z,22.57
2017-09-14T09:33:06.026Z,22.52
2017-09-14T09:34:14.690Z,22.6
2017-09-14T09:35:23.342Z,22.57
2017-09-14T09:36:32.932Z,22.61
2017-09-14T09:37:41.896Z,22.54
2017-09-14T09:38:51.186Z,22.7
2017-09-14T09:40:00.827Z,22.6
2017-09-14T09:41:10.433Z,22.57
2017-09-14T09:42:19.711Z,22.67
2017-09-14T09:43:28.740Z,22.65
2017-09-14T09:44:38.332Z,22.65
2017-09-14T09:45:47.625Z,22.64
2017-09-14T09:46:56.941Z,22.58
2017-09-14T09:48:05.903Z,22.65
2017-09-14T09:49:15.180Z,22.58
2017-09-14T09:50:24.575Z,22.57
2017-09-14T09:51:33.539Z,22.57
2017-09-14T09:52:43.134Z,22.61
2017-09-14T09:53:52.124Z,22.7
2017-09-14T09:55:01.414Z,22.68
2017-09-14T09:56:10.068Z,22.68
2017-09-14T09:57:18.731Z,22.62
2017-09-14T09:58:28.023Z,22.65
2017-09-14T09:59:36.998Z,22.7
2017-09-14T10:00:46.604Z,22.72
2017-09-14T10:01:56.185Z,22.65
2017-09-14T10:03:05.464Z,22.68
2017-09-14T10:04:14.115Z,22.77
2017-09-14T10:05:23.088Z,22.65
2017-09-14T10:06:32.050Z,22.73
2017-09-14T10:07:40.763Z,22.64
2017-09-14T10:08:49.417Z,22.72
2017-09-14T10:09:59.321Z,22.68
2017-09-14T10:11:08.610Z,22.67
2017-09-14T10:12:17.571Z,22.65
2017-09-14T10:13:26.868Z,22.64
2017-09-14T10:14:35.830Z,22.73
2017-09-14T10:15:44.814Z,22.64
2017-09-14T10:16:53.821Z,22.61
2017-09-14T10:18:03.088Z,22.6
2017-09-14T10:19:11.747Z,22.58
2017-09-14T10:20:20.709Z,22.67
2017-09-14T10:21:30.298Z,22.67
2017-09-14T10:22:39.277Z,22.61
2017-09-14T10:23:47.938Z,22.54
2017-09-14T10:24:57.376Z,22.64
2017-09-14T10:26:06.669Z,22.6
2017-09-14T10:27:15.647Z,22.61
2017-09-14T10:28:25.365Z,22.57
2017-09-14T10:29:34.529Z,22.65
2017-09-14T10:30:44.030Z,22.54
2017-09-14T10:31:53.016Z,22.54
2017-09-14T10:33:02.090Z,22.65
2017-09-14T10:34:12.096Z,22.57
2017-09-14T10:35:21.765Z,22.7
2017-09-14T10:36:31.028Z,22.68
2017-09-14T10:37:40.047Z,22.62
2017-09-14T10:38:49.390Z,22.61
2017-09-14T10:39:58.711Z,22.62
2017-09-14T10:41:07.690Z,22.58
2017-09-14T10:42:16.993Z,22.58
2017-09-14T10:43:25.642Z,22.64
2017-09-14T10:44:34.619Z,22.67
2017-09-14T10:45:43.622Z,22.65
2017-09-14T10:46:53.532Z,22.62
2017-09-14T10:48:02.629Z,22.64
2017-09-14T10:49:11.294Z,22.64
2017-09-14T10:50:20.337Z,22.62
2017-09-14T10:51:29.613Z,22.57
2017-09-14T10:52:38.933Z,22.67
2017-09-14T10:53:47.750Z,22.55
2017-09-14T10:54:57.041Z,22.64
2017-09-14T10:56:05.699Z,22.61
2017-09-14T10:57:14.675Z,22.62
2017-09-14T10:58:23.974Z,22.67
2017-09-14T10:59:33.121Z,22.55
2017-09-14T11:00:42.101Z,22.64
2017-09-14T11:01:51.149Z,22.62
2017-09-14T11:02:59.796Z,22.64
2017-09-14T11:04:08.773Z,22.67
2017-09-14T11:05:18.063Z,22.6
2017-09-14T11:06:27.662Z,22.57
2017-09-14T11:07:36.359Z,22.64
2017-09-14T11:08:45.299Z,22.72
2017-09-14T11:09:53.979Z,22.7
2017-09-14T11:11:03.642Z,22.65
2017-09-14T11:12:12.612Z,22.67
2017-09-14T11:13:21.909Z,22.77
2017-09-14T11:14:31.195Z,22.73
2017-09-14T11:15:40.500Z,22.73
2017-09-14T11:16:50.247Z,22.68
2017-09-14T11:17:58.898Z,22.79
2017-09-14T11:19:07.865Z,22.82
2017-09-14T11:20:16.834Z,22.83
2017-09-14T11:21:25.492Z,22.76
2017-09-14T11:22:34.461Z,22.72
2017-09-14T11:23:44.387Z,22.8
2017-09-14T11:24:53.667Z,22.7
2017-09-14T11:26:03.270Z,22.75
2017-09-14T11:27:11.920Z,22.73
2017-09-14T11:28:20.577Z,22.64
2017-09-14T11:29:30.173Z,22.67
2017-09-14T11:30:38.863Z,22.75
2017-09-14T11:31:48.141Z,22.67
2017-09-14T11:32:57.124Z,22.68
2017-09-14T11:34:06.200Z,22.65
2017-09-14T11:35:15.208Z,22.68
2017-09-14T11:36:24.498Z,22.7
2017-09-14T11:37:33.459Z,22.61
2017-09-14T11:38:42.431Z,22.6
2017-09-14T11:39:51.733Z,22.65
2017-09-14T11:41:00.714Z,22.64
2017-09-14T11:42:09.366Z,22.73
2017-09-14T11:43:18.652Z,22.7
2017-09-14T11:44:27.616Z,22.72
2017-09-14T11:45:37.265Z,22.68
2017-09-14T11:46:45.932Z,22.72
2017-09-14T11:47:54.911Z,22.75
2017-09-14T11:49:04.195Z,22.7
2017-09-14T11:50:13.162Z,22.68
2017-09-14T11:51:22.755Z,22.65
2017-09-14T11:52:32.357Z,22.7
2017-09-14T11:53:41.009Z,22.6
2017-09-14T11:54:50.293Z,22.65
2017-09-14T11:55:58.944Z,22.61
2017-09-14T11:57:07.692Z,22.58
2017-09-14T11:58:16.983Z,22.62
2017-09-14T11:59:26.595Z,22.6
2017-09-14T12:00:35.564Z,22.67
2017-09-14T12:01:44.869Z,22.58
2017-09-14T12:02:53.860Z,22.57
2017-09-14T12:04:03.153Z,22.61
2017-09-14T12:05:12.761Z,22.55
2017-09-14T12:06:21.740Z,22.55
2017-09-14T12:07:31.344Z,22.62
2017-09-14T12:08:40.148Z,22.64
2017-09-14T12:09:49.436Z,22.57
2017-09-14T12:10:58.403Z,22.65
2017-09-14T12:12:07.692Z,22.58
2017-09-14T12:13:16.976Z,22.67
2017-09-14T12:14:25.727Z,22.58
2017-09-14T12:15:34.392Z,22.58
2017-09-14T12:16:44.026Z,22.72
2017-09-14T12:17:52.681Z,22.64
2017-09-14T12:19:01.652Z,22.64
2017-09-14T12:20:10.771Z,22.58
2017-09-14T12:21:19.737Z,22.6
2017-09-14T12:22:29.028Z,22.58
2017-09-14T12:23:38.363Z,22.57
2017-09-14T12:24:47.643Z,22.58
2017-09-14T12:25:57.547Z,22.57
2017-09-14T12:27:06.841Z,22.61
2017-09-14T12:28:15.827Z,22.67
2017-09-14T12:29:24.802Z,22.62
2017-09-14T12:30:34.406Z,22.57
2017-09-14T12:31:43.728Z,22.55
2017-09-14T12:32:52.703Z,22.57
2017-09-14T12:34:01.359Z,22.58
2017-09-14T12:35:10.961Z,22.55
2017-09-14T12:36:19.930Z,22.57
2017-09-14T12:37:28.770Z,22.55
2017-09-14T12:38:38.127Z,22.55
2017-09-14T12:39:46.830Z,22.6
2017-09-14T12:40:56.454Z,22.61
2017-09-14T12:42:05.426Z,22.61
2017-09-14T12:43:14.549Z,22.6
2017-09-14T12:44:23.211Z,22.67
2017-09-14T12:45:32.799Z,22.7
2017-09-14T12:46:41.443Z,22.55
2017-09-14T12:47:50.125Z,22.61
2017-09-14T12:48:59.193Z,22.58
2017-09-14T12:50:07.860Z,22.57
2017-09-14T12:51:17.475Z,22.62
2017-09-14T12:52:26.452Z,22.6
2017-09-14T12:53:36.054Z,22.68
2017-09-14T12:54:45.322Z,22.57
2017-09-14T12:55:54.296Z,22.58
2017-09-14T12:57:02.970Z,22.61
2017-09-14T12:58:12.576Z,22.61
2017-09-14T12:59:21.541Z,22.65
2017-09-14T13:00:30.866Z,22.61
2017-09-14T13:01:39.524Z,22.73
2017-09-14T13:02:48.509Z,22.73
2017-09-14T13:03:57.481Z,22.68
2017-09-14T13:05:06.783Z,22.67
2017-09-14T13:06:15.754Z,22.57
2017-09-14T13:07:25.036Z,22.6
2017-09-14T13:08:34.358Z,22.58
2017-09-14T13:09:43.392Z,22.7
2017-09-14T13:10:52.354Z,22.67
2017-09-14T13:12:01.311Z,22.58
2017-09-14T13:13:10.911Z,22.58
2017-09-14T13:14:20.186Z,22.61
2017-09-14T13:15:29.490Z,22.65
2017-09-14T13:16:38.773Z,22.58
2017-09-14T13:17:48.208Z,22.67
2017-09-14T13:18:57.181Z,22.57
2017-09-14T13:20:06.167Z,22.65
2017-09-14T13:21:14.832Z,22.6
2017-09-14T13:22:23.816Z,22.58
2017-09-14T13:23:32.952Z,22.68
2017-09-14T13:24:41.931Z,22.61
2017-09-14T13:25:50.901Z,22.6
2017-09-14T13:27:00.182Z,22.61
2017-09-14T13:28:09.145Z,22.57
2017-09-14T13:29:18.226Z,22.57
2017-09-14T13:30:27.195Z,22.54
2017-09-14T13:31:36.155Z,22.54
2017-09-14T13:32:45.131Z,22.55
2017-09-14T13:33:54.092Z,22.51
2017-09-14T13:35:03.376Z,22.54
2017-09-14T13:36:12.673Z,22.55
2017-09-14T13:37:21.641Z,22.61
2017-09-14T13:38:30.307Z,22.67
2017-09-14T13:39:39.289Z,22.6
2017-09-14T13:40:48.265Z,22.57
2017-09-14T13:41:57.255Z,22.7
2017-09-14T13:43:06.569Z,22.65
2017-09-14T13:44:15.224Z,22.62
2017-09-14T13:45:24.506Z,22.61
2017-09-14T13:46:33.886Z,22.72
2017-09-14T13:47:42.843Z,22.7
2017-09-14T13:48:52.124Z,22.64
2017-09-14T13:50:00.777Z,22.7
2017-09-14T13:51:10.701Z,22.7
2017-09-14T13:52:19.358Z,22.68
2017-09-14T13:53:28.956Z,22.67
2017-09-14T13:54:38.255Z,22.62
2017-09-14T13:55:47.856Z,22.73
2017-09-14T13:56:56.838Z,22.65
2017-09-14T13:58:06.446Z,22.68
2017-09-14T13:59:15.411Z,22.73
2017-09-14T14:00:25.338Z,22.65
2017-09-14T14:01:34.338Z,22.72
2017-09-14T14:02:43.312Z,22.64
2017-09-14T14:03:52.298Z,22.72
2017-09-14T14:05:01.269Z,22.72
2017-09-14T14:06:10.557Z,22.72
2017-09-14T14:07:19.526Z,22.68
2017-09-14T14:08:28.500Z,22.7
2017-09-14T14:09:38.097Z,22.68
2017-09-14T14:10:46.782Z,22.76
2017-09-14T14:11:55.750Z,22.68
2017-09-14T14:13:05.363Z,22.7
2017-09-14T14:14:14.345Z,22.73
2017-09-14T14:15:23.625Z,22.7
2017-09-14T14:16:32.934Z,22.67
2017-09-14T14:17:41.900Z,22.58
2017-09-14T14:18:51.196Z,22.6
2017-09-14T14:20:00.173Z,22.58
2017-09-14T14:21:09.612Z,22.62
2017-09-14T14:22:18.585Z,22.65
2017-09-14T14:23:27.897Z,22.58
2017-09-14T14:24:37.180Z,22.61
2017-09-14T14:25:45.869Z,22.67
2017-09-14T14:26:54.843Z,22.57
2017-09-14T14:28:04.447Z,22.57
2017-09-14T14:29:13.127Z,22.7
2017-09-14T14:30:22.424Z,22.62
2017-09-14T14:31:32.026Z,22.55
2017-09-14T14:32:40.683Z,22.6
2017-09-14T14:33:49.652Z,22.51
2017-09-14T14:34:58.635Z,22.57
2017-09-14T14:36:07.923Z,22.65
2017-09-14T14:37:16.894Z,22.61
2017-09-14T14:38:26.075Z,22.57
2017-09-14T14:39:35.363Z,22.57
2017-09-14T14:40:44.648Z,22.51
2017-09-14T14:41:54.895Z,22.61
2017-09-14T14:43:03.865Z,22.54
2017-09-14T14:44:12.670Z,22.55
2017-09-14T14:45:21.349Z,22.51
2017-09-14T14:46:30.350Z,22.52
2017-09-14T14:47:39.317Z,22.57
2017-09-14T14:48:48.289Z,22.39
2017-09-14T14:49:57.990Z,22.55
2017-09-14T14:51:07.590Z,22.42
2017-09-14T14:52:16.878Z,22.47
2017-09-14T14:53:25.544Z,22.37
2017-09-14T14:54:34.835Z,22.46